sensor_id;sensor_type;location;lat;lon;timestamp;P1;durP1;ratioP1;P2;durP2;ratioP2
71558;SDS011;59382;43.852;25.952;2023-10-09T00:04:10;2.40;;;0.85;;
71558;SDS011;59382;43.852;25.952;2023-10-09T00:06:36;0.43;;;0.40;;
71558;SDS011;59382;43.852;25.952;2023-10-09T00:09:05;2.15;;;1.23;;
71558;SDS011;59382;43.852;25.952;2023-10-09T00:11:49;0.40;;;0.40;;
71558;SDS011;59382;43.852;25.952;2023-10-09T00:14:21;1.20;;;0.50;;
71558;SDS011;59382;43.852;25.952;2023-10-09T00:16:48;1.48;;;0.70;;
71558;SDS011;59382;43.852;25.952;2023-10-09T00:19:14;1.45;;;0.52;;
71558;SDS011;59382;43.852;25.952;2023-10-09T00:21:45;0.47;;;0.47;;
71558;SDS011;59382;43.852;25.952;2023-10-09T00:24:15;2.15;;;0.63;;
71558;SDS011;59382;43.852;25.952;2023-10-09T00:26:49;2.90;;;0.52;;
71558;SDS011;59382;43.852;25.952;2023-10-09T00:29:16;1.02;;;0.57;;
71558;SDS011;59382;43.852;25.952;2023-10-09T00:31:53;3.13;;;0.60;;
71558;SDS011;59382;43.852;25.952;2023-10-09T00:34:28;1.02;;;0.70;;
71558;SDS011;59382;43.852;25.952;2023-10-09T00:36:54;1.13;;;0.75;;
71558;SDS011;59382;43.852;25.952;2023-10-09T00:39:21;0.40;;;0.40;;
71558;SDS011;59382;43.852;25.952;2023-10-09T00:42:08;1.13;;;0.70;;
71558;SDS011;59382;43.852;25.952;2023-10-09T00:44:38;0.77;;;0.50;;
71558;SDS011;59382;43.852;25.952;2023-10-09T00:47:13;1.48;;;0.75;;
71558;SDS011;59382;43.852;25.952;2023-10-09T00:49:57;0.45;;;0.43;;
71558;SDS011;59382;43.852;25.952;2023-10-09T00:52:32;1.10;;;0.57;;
71558;SDS011;59382;43.852;25.952;2023-10-09T00:55:09;0.95;;;0.82;;
71558;SDS011;59382;43.852;25.952;2023-10-09T00:57:40;1.60;;;0.85;;
71558;SDS011;59382;43.852;25.952;2023-10-09T01:00:12;0.88;;;0.60;;
71558;SDS011;59382;43.852;25.952;2023-10-09T01:02:59;1.92;;;0.73;;
71558;SDS011;59382;43.852;25.952;2023-10-09T01:05:49;1.70;;;0.60;;
71558;SDS011;59382;43.852;25.952;2023-10-09T01:08:34;1.55;;;0.85;;
71558;SDS011;59382;43.852;25.952;2023-10-09T01:11:07;1.02;;;0.50;;
71558;SDS011;59382;43.852;25.952;2023-10-09T01:13:36;0.93;;;0.57;;
71558;SDS011;59382;43.852;25.952;2023-10-09T01:16:23;2.83;;;0.63;;
71558;SDS011;59382;43.852;25.952;2023-10-09T01:18:52;0.90;;;0.50;;
71558;SDS011;59382;43.852;25.952;2023-10-09T01:21:22;2.85;;;0.90;;
71558;SDS011;59382;43.852;25.952;2023-10-09T01:23:54;0.85;;;0.50;;
71558;SDS011;59382;43.852;25.952;2023-10-09T01:26:29;0.88;;;0.50;;
71558;SDS011;59382;43.852;25.952;2023-10-09T01:29:09;0.73;;;0.68;;
71558;SDS011;59382;43.852;25.952;2023-10-09T01:31:44;0.98;;;0.60;;
71558;SDS011;59382;43.852;25.952;2023-10-09T01:34:33;0.88;;;0.57;;
71558;SDS011;59382;43.852;25.952;2023-10-09T01:37:19;0.60;;;0.40;;
71558;SDS011;59382;43.852;25.952;2023-10-09T01:39:49;0.32;;;0.32;;
71558;SDS011;59382;43.852;25.952;2023-10-09T01:42:17;0.70;;;0.60;;
71558;SDS011;59382;43.852;25.952;2023-10-09T01:44:55;3.60;;;0.75;;
71558;SDS011;59382;43.852;25.952;2023-10-09T01:47:23;0.93;;;0.60;;
71558;SDS011;59382;43.852;25.952;2023-10-09T01:49:51;0.70;;;0.68;;
71558;SDS011;59382;43.852;25.952;2023-10-09T01:52:20;1.02;;;0.77;;
71558;SDS011;59382;43.852;25.952;2023-10-09T01:54:46;0.63;;;0.55;;
71558;SDS011;59382;43.852;25.952;2023-10-09T01:57:16;4.80;;;1.02;;
71558;SDS011;59382;43.852;25.952;2023-10-09T01:59:55;0.40;;;0.40;;
71558;SDS011;59382;43.852;25.952;2023-10-09T02:02:23;1.20;;;0.55;;
71558;SDS011;59382;43.852;25.952;2023-10-09T02:04:59;0.82;;;0.57;;
71558;SDS011;59382;43.852;25.952;2023-10-09T02:07:35;1.30;;;0.68;;
71558;SDS011;59382;43.852;25.952;2023-10-09T02:10:10;1.58;;;0.60;;
71558;SDS011;59382;43.852;25.952;2023-10-09T02:13:04;1.42;;;0.60;;
71558;SDS011;59382;43.852;25.952;2023-10-09T02:15:37;1.35;;;0.55;;
71558;SDS011;59382;43.852;25.952;2023-10-09T02:23:25;1.30;;;0.90;;
71558;SDS011;59382;43.852;25.952;2023-10-09T02:26:03;0.60;;;0.52;;
71558;SDS011;59382;43.852;25.952;2023-10-09T02:28:31;1.20;;;0.63;;
71558;SDS011;59382;43.852;25.952;2023-10-09T02:31:01;1.05;;;0.70;;
71558;SDS011;59382;43.852;25.952;2023-10-09T02:33:35;0.88;;;0.70;;
71558;SDS011;59382;43.852;25.952;2023-10-09T02:36:01;0.65;;;0.65;;
71558;SDS011;59382;43.852;25.952;2023-10-09T02:38:31;0.50;;;0.50;;
71558;SDS011;59382;43.852;25.952;2023-10-09T02:41:00;0.68;;;0.57;;
71558;SDS011;59382;43.852;25.952;2023-10-09T02:43:29;1.15;;;0.50;;
71558;SDS011;59382;43.852;25.952;2023-10-09T02:46:15;1.08;;;0.60;;
71558;SDS011;59382;43.852;25.952;2023-10-09T02:48:45;0.47;;;0.45;;
71558;SDS011;59382;43.852;25.952;2023-10-09T02:53:51;2.78;;;0.55;;
71558;SDS011;59382;43.852;25.952;2023-10-09T02:56:33;1.15;;;0.80;;
71558;SDS011;59382;43.852;25.952;2023-10-09T02:59:05;1.02;;;0.47;;
71558;SDS011;59382;43.852;25.952;2023-10-09T03:01:31;1.52;;;0.70;;
71558;SDS011;59382;43.852;25.952;2023-10-09T03:03:59;1.27;;;0.80;;
71558;SDS011;59382;43.852;25.952;2023-10-09T03:06:28;1.88;;;0.60;;
71558;SDS011;59382;43.852;25.952;2023-10-09T03:09:03;1.10;;;0.80;;
71558;SDS011;59382;43.852;25.952;2023-10-09T03:11:45;1.00;;;0.57;;
71558;SDS011;59382;43.852;25.952;2023-10-09T03:14:13;0.90;;;0.70;;
71558;SDS011;59382;43.852;25.952;2023-10-09T03:16:41;1.67;;;0.90;;
71558;SDS011;59382;43.852;25.952;2023-10-09T03:19:08;1.75;;;0.60;;
71558;SDS011;59382;43.852;25.952;2023-10-09T03:21:36;1.08;;;0.50;;
71558;SDS011;59382;43.852;25.952;2023-10-09T03:24:02;0.88;;;0.57;;
71558;SDS011;59382;43.852;25.952;2023-10-09T03:26:30;0.88;;;0.70;;
71558;SDS011;59382;43.852;25.952;2023-10-09T03:28:56;0.80;;;0.52;;
71558;SDS011;59382;43.852;25.952;2023-10-09T03:31:26;0.52;;;0.52;;
71558;SDS011;59382;43.852;25.952;2023-10-09T03:33:56;0.52;;;0.40;;
71558;SDS011;59382;43.852;25.952;2023-10-09T03:36:21;1.08;;;0.63;;
71558;SDS011;59382;43.852;25.952;2023-10-09T03:38:47;0.50;;;0.50;;
71558;SDS011;59382;43.852;25.952;2023-10-09T03:41:13;1.30;;;0.65;;
71558;SDS011;59382;43.852;25.952;2023-10-09T03:43:39;0.60;;;0.60;;
71558;SDS011;59382;43.852;25.952;2023-10-09T03:46:08;0.93;;;0.70;;
71558;SDS011;59382;43.852;25.952;2023-10-09T03:48:47;0.70;;;0.60;;
71558;SDS011;59382;43.852;25.952;2023-10-09T03:51:22;1.95;;;0.70;;
71558;SDS011;59382;43.852;25.952;2023-10-09T03:53:48;1.58;;;0.70;;
71558;SDS011;59382;43.852;25.952;2023-10-09T03:56:16;0.98;;;0.77;;
71558;SDS011;59382;43.852;25.952;2023-10-09T03:58:43;1.50;;;1.20;;
71558;SDS011;59382;43.852;25.952;2023-10-09T04:01:15;1.55;;;0.80;;
71558;SDS011;59382;43.852;25.952;2023-10-09T04:03:48;1.02;;;0.70;;
71558;SDS011;59382;43.852;25.952;2023-10-09T04:06:21;0.93;;;0.82;;
71558;SDS011;59382;43.852;25.952;2023-10-09T04:08:47;1.65;;;0.80;;
71558;SDS011;59382;43.852;25.952;2023-10-09T04:11:15;1.33;;;0.77;;
71558;SDS011;59382;43.852;25.952;2023-10-09T04:13:44;1.48;;;0.80;;
71558;SDS011;59382;43.852;25.952;2023-10-09T04:16:17;0.50;;;0.50;;
71558;SDS011;59382;43.852;25.952;2023-10-09T04:18:52;6.18;;;0.93;;
71558;SDS011;59382;43.852;25.952;2023-10-09T04:21:18;0.40;;;0.40;;
71558;SDS011;59382;43.852;25.952;2023-10-09T04:24:00;1.40;;;0.98;;
71558;SDS011;59382;43.852;25.952;2023-10-09T04:29:02;0.80;;;0.50;;
71558;SDS011;59382;43.852;25.952;2023-10-09T04:31:28;3.03;;;1.27;;
71558;SDS011;59382;43.852;25.952;2023-10-09T04:33:58;12.05;;;1.13;;
71558;SDS011;59382;43.852;25.952;2023-10-09T04:36:42;1.33;;;0.60;;
71558;SDS011;59382;43.852;25.952;2023-10-09T04:39:11;1.67;;;0.60;;
71558;SDS011;59382;43.852;25.952;2023-10-09T04:41:37;1.80;;;0.70;;
71558;SDS011;59382;43.852;25.952;2023-10-09T04:44:09;1.52;;;0.70;;
71558;SDS011;59382;43.852;25.952;2023-10-09T04:46:47;0.68;;;0.63;;
71558;SDS011;59382;43.852;25.952;2023-10-09T04:49:33;0.63;;;0.60;;
71558;SDS011;59382;43.852;25.952;2023-10-09T04:52:17;4.43;;;0.57;;
71558;SDS011;59382;43.852;25.952;2023-10-09T04:54:58;1.33;;;0.68;;
71558;SDS011;59382;43.852;25.952;2023-10-09T04:57:44;1.08;;;0.77;;
71558;SDS011;59382;43.852;25.952;2023-10-09T05:00:26;1.27;;;0.60;;
71558;SDS011;59382;43.852;25.952;2023-10-09T05:02:53;1.95;;;0.90;;
71558;SDS011;59382;43.852;25.952;2023-10-09T05:05:20;2.10;;;0.85;;
71558;SDS011;59382;43.852;25.952;2023-10-09T05:08:05;0.70;;;0.50;;
71558;SDS011;59382;43.852;25.952;2023-10-09T05:10:52;0.98;;;0.70;;
71558;SDS011;59382;43.852;25.952;2023-10-09T05:13:36;3.25;;;0.80;;
71558;SDS011;59382;43.852;25.952;2023-10-09T05:16:06;2.08;;;0.77;;
71558;SDS011;59382;43.852;25.952;2023-10-09T05:18:47;1.52;;;0.90;;
71558;SDS011;59382;43.852;25.952;2023-10-09T05:21:58;1.52;;;0.77;;
71558;SDS011;59382;43.852;25.952;2023-10-09T05:24:17;3.22;;;1.55;;
71558;SDS011;59382;43.852;25.952;2023-10-09T05:26:45;1.10;;;0.88;;
71558;SDS011;59382;43.852;25.952;2023-10-09T05:29:15;1.52;;;1.10;;
71558;SDS011;59382;43.852;25.952;2023-10-09T05:32:03;1.17;;;0.75;;
71558;SDS011;59382;43.852;25.952;2023-10-09T05:34:44;2.00;;;1.00;;
71558;SDS011;59382;43.852;25.952;2023-10-09T05:37:26;1.10;;;0.63;;
71558;SDS011;59382;43.852;25.952;2023-10-09T05:40:07;5.90;;;1.02;;
71558;SDS011;59382;43.852;25.952;2023-10-09T05:42:42;1.33;;;0.65;;
71558;SDS011;59382;43.852;25.952;2023-10-09T05:45:09;2.97;;;0.88;;
71558;SDS011;59382;43.852;25.952;2023-10-09T05:47:57;3.92;;;0.85;;
71558;SDS011;59382;43.852;25.952;2023-10-09T05:50:23;1.48;;;0.90;;
71558;SDS011;59382;43.852;25.952;2023-10-09T05:52:50;0.95;;;0.68;;
71558;SDS011;59382;43.852;25.952;2023-10-09T05:55:16;1.45;;;0.50;;
71558;SDS011;59382;43.852;25.952;2023-10-09T05:57:52;2.72;;;0.90;;
71558;SDS011;59382;43.852;25.952;2023-10-09T06:00:24;2.05;;;0.80;;
71558;SDS011;59382;43.852;25.952;2023-10-09T06:03:09;2.80;;;0.63;;
71558;SDS011;59382;43.852;25.952;2023-10-09T06:05:44;1.63;;;0.50;;
71558;SDS011;59382;43.852;25.952;2023-10-09T06:08:29;1.52;;;0.70;;
71558;SDS011;59382;43.852;25.952;2023-10-09T06:11:08;2.47;;;0.82;;
71558;SDS011;59382;43.852;25.952;2023-10-09T06:13:54;1.17;;;0.57;;
71558;SDS011;59382;43.852;25.952;2023-10-09T06:16:49;1.05;;;0.75;;
71558;SDS011;59382;43.852;25.952;2023-10-09T06:19:46;1.45;;;0.85;;
71558;SDS011;59382;43.852;25.952;2023-10-09T06:22:14;2.75;;;0.70;;
71558;SDS011;59382;43.852;25.952;2023-10-09T06:24:58;1.40;;;0.70;;
71558;SDS011;59382;43.852;25.952;2023-10-09T06:27:34;1.63;;;0.68;;
71558;SDS011;59382;43.852;25.952;2023-10-09T06:30:00;3.03;;;0.70;;
71558;SDS011;59382;43.852;25.952;2023-10-09T06:32:41;5.57;;;0.63;;
71558;SDS011;59382;43.852;25.952;2023-10-09T06:35:23;1.08;;;0.55;;
71558;SDS011;59382;43.852;25.952;2023-10-09T06:37:58;1.98;;;0.60;;
71558;SDS011;59382;43.852;25.952;2023-10-09T06:43:20;1.23;;;0.63;;
71558;SDS011;59382;43.852;25.952;2023-10-09T06:45:46;1.33;;;0.52;;
71558;SDS011;59382;43.852;25.952;2023-10-09T06:48:19;2.28;;;0.70;;
71558;SDS011;59382;43.852;25.952;2023-10-09T06:51:05;1.55;;;0.80;;
71558;SDS011;59382;43.852;25.952;2023-10-09T06:53:50;1.02;;;0.47;;
71558;SDS011;59382;43.852;25.952;2023-10-09T06:56:28;1.92;;;0.80;;
71558;SDS011;59382;43.852;25.952;2023-10-09T06:58:54;2.58;;;0.80;;
71558;SDS011;59382;43.852;25.952;2023-10-09T07:01:24;1.67;;;0.68;;
71558;SDS011;59382;43.852;25.952;2023-10-09T07:03:52;1.95;;;0.45;;
71558;SDS011;59382;43.852;25.952;2023-10-09T07:06:19;1.05;;;0.52;;
71558;SDS011;59382;43.852;25.952;2023-10-09T07:08:51;2.90;;;0.93;;
71558;SDS011;59382;43.852;25.952;2023-10-09T07:11:39;1.85;;;0.90;;
71558;SDS011;59382;43.852;25.952;2023-10-09T07:14:05;1.50;;;0.60;;
71558;SDS011;59382;43.852;25.952;2023-10-09T07:16:53;0.40;;;0.40;;
71558;SDS011;59382;43.852;25.952;2023-10-09T07:19:25;0.55;;;0.55;;
71558;SDS011;59382;43.852;25.952;2023-10-09T07:22:07;1.17;;;0.77;;
71558;SDS011;59382;43.852;25.952;2023-10-09T07:24:45;1.17;;;0.75;;
71558;SDS011;59382;43.852;25.952;2023-10-09T07:27:42;0.90;;;0.47;;
71558;SDS011;59382;43.852;25.952;2023-10-09T07:30:14;2.60;;;0.65;;
71558;SDS011;59382;43.852;25.952;2023-10-09T07:32:56;0.40;;;0.40;;
71558;SDS011;59382;43.852;25.952;2023-10-09T07:35:35;7.05;;;0.80;;
71558;SDS011;59382;43.852;25.952;2023-10-09T07:38:16;2.30;;;0.60;;
71558;SDS011;59382;43.852;25.952;2023-10-09T07:40:54;2.80;;;0.60;;
71558;SDS011;59382;43.852;25.952;2023-10-09T07:43:24;1.02;;;0.57;;
71558;SDS011;59382;43.852;25.952;2023-10-09T07:48:57;3.85;;;1.50;;
71558;SDS011;59382;43.852;25.952;2023-10-09T07:51:46;2.78;;;1.00;;
71558;SDS011;59382;43.852;25.952;2023-10-09T07:54:12;1.15;;;0.60;;
71558;SDS011;59382;43.852;25.952;2023-10-09T07:56:40;1.90;;;0.77;;
71558;SDS011;59382;43.852;25.952;2023-10-09T07:59:08;1.17;;;0.60;;
71558;SDS011;59382;43.852;25.952;2023-10-09T08:01:39;1.85;;;0.80;;
71558;SDS011;59382;43.852;25.952;2023-10-09T08:04:26;0.68;;;0.60;;
71558;SDS011;59382;43.852;25.952;2023-10-09T08:07:10;0.80;;;0.60;;
71558;SDS011;59382;43.852;25.952;2023-10-09T08:09:54;0.40;;;0.40;;
71558;SDS011;59382;43.852;25.952;2023-10-09T08:12:38;1.00;;;0.73;;
71558;SDS011;59382;43.852;25.952;2023-10-09T08:15:10;0.90;;;0.68;;
71558;SDS011;59382;43.852;25.952;2023-10-09T08:17:48;1.20;;;0.60;;
71558;SDS011;59382;43.852;25.952;2023-10-09T08:20:26;0.40;;;0.38;;
71558;SDS011;59382;43.852;25.952;2023-10-09T08:22:53;0.75;;;0.50;;
71558;SDS011;59382;43.852;25.952;2023-10-09T08:25:22;0.95;;;0.47;;
71558;SDS011;59382;43.852;25.952;2023-10-09T08:27:53;2.38;;;0.60;;
71558;SDS011;59382;43.852;25.952;2023-10-09T08:30:22;0.82;;;0.60;;
71558;SDS011;59382;43.852;25.952;2023-10-09T08:32:52;3.00;;;0.50;;
71558;SDS011;59382;43.852;25.952;2023-10-09T08:35:30;3.40;;;1.13;;
71558;SDS011;59382;43.852;25.952;2023-10-09T08:38:08;0.70;;;0.70;;
71558;SDS011;59382;43.852;25.952;2023-10-09T08:40:40;1.08;;;0.70;;
71558;SDS011;59382;43.852;25.952;2023-10-09T08:43:20;1.02;;;0.63;;
71558;SDS011;59382;43.852;25.952;2023-10-09T08:48:18;1.38;;;0.63;;
71558;SDS011;59382;43.852;25.952;2023-10-09T08:50:49;1.30;;;0.70;;
71558;SDS011;59382;43.852;25.952;2023-10-09T08:53:16;4.82;;;0.68;;
71558;SDS011;59382;43.852;25.952;2023-10-09T08:55:43;0.55;;;0.50;;
71558;SDS011;59382;43.852;25.952;2023-10-09T08:58:09;2.55;;;0.73;;
71558;SDS011;59382;43.852;25.952;2023-10-09T09:00:58;2.28;;;0.80;;
71558;SDS011;59382;43.852;25.952;2023-10-09T09:03:25;6.28;;;0.82;;
71558;SDS011;59382;43.852;25.952;2023-10-09T09:13:46;1.80;;;0.73;;
71558;SDS011;59382;43.852;25.952;2023-10-09T09:18:52;1.77;;;0.80;;
71558;SDS011;59382;43.852;25.952;2023-10-09T09:21:34;1.58;;;0.70;;
71558;SDS011;59382;43.852;25.952;2023-10-09T09:24:08;3.65;;;0.73;;
71558;SDS011;59382;43.852;25.952;2023-10-09T09:27:03;2.55;;;0.85;;
71558;SDS011;59382;43.852;25.952;2023-10-09T09:32:12;0.90;;;0.40;;
71558;SDS011;59382;43.852;25.952;2023-10-09T09:34:50;3.33;;;0.73;;
71558;SDS011;59382;43.852;25.952;2023-10-09T09:37:20;3.05;;;0.68;;
71558;SDS011;59382;43.852;25.952;2023-10-09T09:40:00;0.30;;;0.30;;
71558;SDS011;59382;43.852;25.952;2023-10-09T09:42:36;1.10;;;0.40;;
71558;SDS011;59382;43.852;25.952;2023-10-09T09:45:03;3.72;;;0.77;;
71558;SDS011;59382;43.852;25.952;2023-10-09T09:47:31;1.65;;;1.00;;
71558;SDS011;59382;43.852;25.952;2023-10-09T09:50:00;6.25;;;0.75;;
71558;SDS011;59382;43.852;25.952;2023-10-09T09:52:36;2.35;;;0.80;;
71558;SDS011;59382;43.852;25.952;2023-10-09T09:55:08;2.58;;;0.70;;
71558;SDS011;59382;43.852;25.952;2023-10-09T09:57:42;2.35;;;0.60;;
71558;SDS011;59382;43.852;25.952;2023-10-09T10:00:10;1.58;;;0.65;;
71558;SDS011;59382;43.852;25.952;2023-10-09T10:02:54;0.55;;;0.52;;
71558;SDS011;59382;43.852;25.952;2023-10-09T10:05:25;2.53;;;1.00;;
71558;SDS011;59382;43.852;25.952;2023-10-09T10:07:56;1.13;;;0.60;;
71558;SDS011;59382;43.852;25.952;2023-10-09T10:13:54;2.25;;;1.10;;
71558;SDS011;59382;43.852;25.952;2023-10-09T10:16:16;1.10;;;0.57;;
71558;SDS011;59382;43.852;25.952;2023-10-09T10:18:52;1.15;;;0.52;;
71558;SDS011;59382;43.852;25.952;2023-10-09T10:21:47;1.75;;;0.95;;
71558;SDS011;59382;43.852;25.952;2023-10-09T10:35:17;1.40;;;0.65;;
71558;SDS011;59382;43.852;25.952;2023-10-09T10:37:46;1.58;;;0.95;;
71558;SDS011;59382;43.852;25.952;2023-10-09T10:40:27;0.93;;;0.60;;
71558;SDS011;59382;43.852;25.952;2023-10-09T10:43:18;0.88;;;0.55;;
71558;SDS011;59382;43.852;25.952;2023-10-09T10:46:02;4.90;;;1.37;;
71558;SDS011;59382;43.852;25.952;2023-10-09T10:48:51;0.98;;;0.70;;
71558;SDS011;59382;43.852;25.952;2023-10-09T10:51:56;4.75;;;0.90;;
71558;SDS011;59382;43.852;25.952;2023-10-09T10:54:42;1.90;;;0.40;;
71558;SDS011;59382;43.852;25.952;2023-10-09T10:57:20;2.47;;;0.57;;
71558;SDS011;59382;43.852;25.952;2023-10-09T11:00:09;3.15;;;0.70;;
71558;SDS011;59382;43.852;25.952;2023-10-09T11:02:55;1.13;;;0.60;;
71558;SDS011;59382;43.852;25.952;2023-10-09T11:05:38;1.42;;;0.63;;
71558;SDS011;59382;43.852;25.952;2023-10-09T11:08:09;1.02;;;0.70;;
71558;SDS011;59382;43.852;25.952;2023-10-09T11:10:35;0.63;;;0.57;;
71558;SDS011;59382;43.852;25.952;2023-10-09T11:13:24;0.90;;;0.60;;
71558;SDS011;59382;43.852;25.952;2023-10-09T11:15:58;0.90;;;0.30;;
71558;SDS011;59382;43.852;25.952;2023-10-09T11:18:42;1.40;;;0.73;;
71558;SDS011;59382;43.852;25.952;2023-10-09T11:21:15;3.58;;;0.60;;
71558;SDS011;59382;43.852;25.952;2023-10-09T11:23:42;3.92;;;1.10;;
71558;SDS011;59382;43.852;25.952;2023-10-09T11:32:27;2.53;;;0.80;;
71558;SDS011;59382;43.852;25.952;2023-10-09T11:37:54;3.65;;;1.10;;
71558;SDS011;59382;43.852;25.952;2023-10-09T11:40:27;10.10;;;1.60;;
71558;SDS011;59382;43.852;25.952;2023-10-09T11:43:37;7.28;;;0.90;;
71558;SDS011;59382;43.852;25.952;2023-10-09T11:46:16;4.75;;;1.13;;
71558;SDS011;59382;43.852;25.952;2023-10-09T11:49:08;0.75;;;0.70;;
71558;SDS011;59382;43.852;25.952;2023-10-09T11:51:47;3.65;;;0.73;;
71558;SDS011;59382;43.852;25.952;2023-10-09T11:54:36;1.10;;;0.50;;
71558;SDS011;59382;43.852;25.952;2023-10-09T11:57:02;0.57;;;0.57;;
71558;SDS011;59382;43.852;25.952;2023-10-09T11:59:32;4.50;;;0.57;;
71558;SDS011;59382;43.852;25.952;2023-10-09T12:02:07;1.25;;;0.70;;
71558;SDS011;59382;43.852;25.952;2023-10-09T12:04:40;1.20;;;0.68;;
71558;SDS011;59382;43.852;25.952;2023-10-09T12:07:08;2.42;;;0.50;;
71558;SDS011;59382;43.852;25.952;2023-10-09T12:09:37;1.98;;;0.70;;
71558;SDS011;59382;43.852;25.952;2023-10-09T12:12:03;1.05;;;0.60;;
71558;SDS011;59382;43.852;25.952;2023-10-09T12:14:30;1.52;;;0.88;;
71558;SDS011;59382;43.852;25.952;2023-10-09T12:17:09;2.78;;;0.77;;
71558;SDS011;59382;43.852;25.952;2023-10-09T12:19:35;1.75;;;0.75;;
71558;SDS011;59382;43.852;25.952;2023-10-09T12:22:03;1.13;;;0.70;;
71558;SDS011;59382;43.852;25.952;2023-10-09T12:24:30;1.38;;;0.65;;
71558;SDS011;59382;43.852;25.952;2023-10-09T12:26:56;1.65;;;0.98;;
71558;SDS011;59382;43.852;25.952;2023-10-09T12:29:22;0.73;;;0.50;;
71558;SDS011;59382;43.852;25.952;2023-10-09T12:31:49;2.13;;;0.85;;
71558;SDS011;59382;43.852;25.952;2023-10-09T12:34:23;0.57;;;0.50;;
71558;SDS011;59382;43.852;25.952;2023-10-09T12:36:54;7.63;;;0.90;;
71558;SDS011;59382;43.852;25.952;2023-10-09T12:39:20;4.72;;;1.00;;
71558;SDS011;59382;43.852;25.952;2023-10-09T12:41:47;1.80;;;0.88;;
71558;SDS011;59382;43.852;25.952;2023-10-09T12:44:13;1.63;;;0.85;;
71558;SDS011;59382;43.852;25.952;2023-10-09T12:46:45;8.65;;;1.13;;
71558;SDS011;59382;43.852;25.952;2023-10-09T12:49:20;2.60;;;0.93;;
71558;SDS011;59382;43.852;25.952;2023-10-09T12:51:53;1.88;;;0.88;;
71558;SDS011;59382;43.852;25.952;2023-10-09T12:54:19;2.33;;;1.67;;
71558;SDS011;59382;43.852;25.952;2023-10-09T12:56:45;5.32;;;1.00;;
71558;SDS011;59382;43.852;25.952;2023-10-09T12:59:14;1.77;;;0.70;;
71558;SDS011;59382;43.852;25.952;2023-10-09T13:01:42;3.83;;;1.65;;
71558;SDS011;59382;43.852;25.952;2023-10-09T13:04:09;4.50;;;1.08;;
71558;SDS011;59382;43.852;25.952;2023-10-09T13:06:39;0.82;;;0.80;;
71558;SDS011;59382;43.852;25.952;2023-10-09T13:09:11;3.58;;;1.20;;
71558;SDS011;59382;43.852;25.952;2023-10-09T13:11:41;2.72;;;1.55;;
71558;SDS011;59382;43.852;25.952;2023-10-09T13:14:08;2.00;;;1.05;;
71558;SDS011;59382;43.852;25.952;2023-10-09T13:16:42;1.50;;;1.33;;
71558;SDS011;59382;43.852;25.952;2023-10-09T13:19:08;1.65;;;1.13;;
71558;SDS011;59382;43.852;25.952;2023-10-09T13:21:37;8.63;;;1.05;;
71558;SDS011;59382;43.852;25.952;2023-10-09T13:24:04;2.42;;;1.40;;
71558;SDS011;59382;43.852;25.952;2023-10-09T13:26:30;3.42;;;1.05;;
71558;SDS011;59382;43.852;25.952;2023-10-09T13:28:58;3.10;;;1.00;;
71558;SDS011;59382;43.852;25.952;2023-10-09T13:31:24;1.17;;;0.80;;
71558;SDS011;59382;43.852;25.952;2023-10-09T13:33:54;1.73;;;1.33;;
71558;SDS011;59382;43.852;25.952;2023-10-09T13:36:21;1.65;;;0.82;;
71558;SDS011;59382;43.852;25.952;2023-10-09T13:38:59;1.38;;;0.90;;
71558;SDS011;59382;43.852;25.952;2023-10-09T13:41:45;0.80;;;0.70;;
71558;SDS011;59382;43.852;25.952;2023-10-09T13:44:11;3.30;;;2.10;;
71558;SDS011;59382;43.852;25.952;2023-10-09T13:46:36;4.00;;;2.00;;
71558;SDS011;59382;43.852;25.952;2023-10-09T13:49:09;2.25;;;1.33;;
71558;SDS011;59382;43.852;25.952;2023-10-09T13:51:39;2.53;;;0.95;;
71558;SDS011;59382;43.852;25.952;2023-10-09T13:54:12;1.55;;;1.00;;
71558;SDS011;59382;43.852;25.952;2023-10-09T13:56:46;4.68;;;1.30;;
71558;SDS011;59382;43.852;25.952;2023-10-09T13:59:18;1.60;;;1.20;;
71558;SDS011;59382;43.852;25.952;2023-10-09T14:01:51;2.78;;;1.15;;
71558;SDS011;59382;43.852;25.952;2023-10-09T14:04:21;5.85;;;1.65;;
71558;SDS011;59382;43.852;25.952;2023-10-09T14:06:48;3.35;;;1.38;;
71558;SDS011;59382;43.852;25.952;2023-10-09T14:09:16;2.88;;;1.23;;
71558;SDS011;59382;43.852;25.952;2023-10-09T14:12:17;4.63;;;1.77;;
71558;SDS011;59382;43.852;25.952;2023-10-09T14:14:44;1.30;;;1.20;;
71558;SDS011;59382;43.852;25.952;2023-10-09T14:17:16;5.78;;;1.60;;
71558;SDS011;59382;43.852;25.952;2023-10-09T14:19:44;6.78;;;1.60;;
71558;SDS011;59382;43.852;25.952;2023-10-09T14:22:20;6.45;;;1.08;;
71558;SDS011;59382;43.852;25.952;2023-10-09T14:24:49;2.17;;;1.30;;
71558;SDS011;59382;43.852;25.952;2023-10-09T14:27:20;3.28;;;1.33;;
71558;SDS011;59382;43.852;25.952;2023-10-09T14:29:51;2.72;;;2.05;;
71558;SDS011;59382;43.852;25.952;2023-10-09T14:32:21;7.70;;;2.10;;
71558;SDS011;59382;43.852;25.952;2023-10-09T14:34:58;4.22;;;1.52;;
71558;SDS011;59382;43.852;25.952;2023-10-09T14:37:27;2.70;;;1.70;;
71558;SDS011;59382;43.852;25.952;2023-10-09T14:39:52;11.43;;;1.67;;
71558;SDS011;59382;43.852;25.952;2023-10-09T14:42:20;1.60;;;1.38;;
71558;SDS011;59382;43.852;25.952;2023-10-09T14:44:49;2.60;;;1.33;;
71558;SDS011;59382;43.852;25.952;2023-10-09T14:47:15;8.20;;;1.65;;
71558;SDS011;59382;43.852;25.952;2023-10-09T14:49:46;7.07;;;1.63;;
71558;SDS011;59382;43.852;25.952;2023-10-09T14:52:15;5.78;;;1.23;;
71558;SDS011;59382;43.852;25.952;2023-10-09T14:54:42;3.70;;;1.20;;
71558;SDS011;59382;43.852;25.952;2023-10-09T14:57:11;2.63;;;1.70;;
71558;SDS011;59382;43.852;25.952;2023-10-09T14:59:38;1.58;;;1.30;;
71558;SDS011;59382;43.852;25.952;2023-10-09T15:02:03;5.25;;;1.27;;
71558;SDS011;59382;43.852;25.952;2023-10-09T15:04:30;3.95;;;2.00;;
71558;SDS011;59382;43.852;25.952;2023-10-09T15:06:57;1.90;;;1.38;;
71558;SDS011;59382;43.852;25.952;2023-10-09T15:09:24;2.65;;;1.58;;
71558;SDS011;59382;43.852;25.952;2023-10-09T15:11:54;4.47;;;1.30;;
71558;SDS011;59382;43.852;25.952;2023-10-09T15:14:20;2.60;;;1.35;;
71558;SDS011;59382;43.852;25.952;2023-10-09T15:16:46;2.40;;;1.05;;
71558;SDS011;59382;43.852;25.952;2023-10-09T15:19:12;3.50;;;1.52;;
71558;SDS011;59382;43.852;25.952;2023-10-09T15:21:39;6.78;;;1.60;;
71558;SDS011;59382;43.852;25.952;2023-10-09T15:24:12;4.82;;;2.05;;
71558;SDS011;59382;43.852;25.952;2023-10-09T15:26:47;4.05;;;1.90;;
71558;SDS011;59382;43.852;25.952;2023-10-09T15:29:25;6.75;;;1.42;;
71558;SDS011;59382;43.852;25.952;2023-10-09T15:32:00;4.53;;;1.40;;
71558;SDS011;59382;43.852;25.952;2023-10-09T15:34:33;8.27;;;2.30;;
71558;SDS011;59382;43.852;25.952;2023-10-09T15:37:02;2.10;;;1.67;;
71558;SDS011;59382;43.852;25.952;2023-10-09T15:39:34;3.95;;;1.40;;
71558;SDS011;59382;43.852;25.952;2023-10-09T15:42:00;3.72;;;1.52;;
71558;SDS011;59382;43.852;25.952;2023-10-09T15:44:29;2.30;;;1.50;;
71558;SDS011;59382;43.852;25.952;2023-10-09T15:47:01;1.50;;;1.40;;
71558;SDS011;59382;43.852;25.952;2023-10-09T15:49:28;2.75;;;1.30;;
71558;SDS011;59382;43.852;25.952;2023-10-09T15:51:55;5.78;;;1.70;;
71558;SDS011;59382;43.852;25.952;2023-10-09T15:54:23;5.22;;;1.30;;
71558;SDS011;59382;43.852;25.952;2023-10-09T15:56:49;1.17;;;1.08;;
71558;SDS011;59382;43.852;25.952;2023-10-09T15:59:14;6.68;;;1.42;;
71558;SDS011;59382;43.852;25.952;2023-10-09T16:01:41;5.47;;;1.98;;
71558;SDS011;59382;43.852;25.952;2023-10-09T16:04:11;3.38;;;2.28;;
71558;SDS011;59382;43.852;25.952;2023-10-09T16:06:37;10.65;;;1.92;;
71558;SDS011;59382;43.852;25.952;2023-10-09T16:09:06;5.00;;;1.73;;